Terminal Aerodrome Forecast
Issued by NWS

Home | Current Version | Previous Version | Text Only | Print | Product List | Glossary On
Versions: 1 2 3 4 5 6 7 8 9 10 11 12 13 14 15 16 17 18 19 20 21 22
691
FTUS43 KEAX 201120
TAFSTJ
TAF
KSTJ 201120Z 2012/2112 00000KT 1/2SM FG OVC003
     FM201600 08006KT 3SM BR OVC008
     FM201800 10008KT P6SM OVC008
     FM202100 11007KT P6SM OVC012
     FM210400 17006KT P6SM BKN050=

USA.gov is the U.S. government's official web portal to all federal, state and local government web resources and services.